sensor_id;sensor_type;location;lat;lon;timestamp;P1;durP1;ratioP1;P2;durP2;ratioP2
78453;SDS011;67750;55.832;49.124;2023-02-24T00:00:37;8.73;;;4.45;;
78453;SDS011;67750;55.832;49.124;2023-02-24T00:03:08;9.20;;;3.90;;
78453;SDS011;67750;55.832;49.124;2023-02-24T00:05:37;9.35;;;3.98;;
78453;SDS011;67750;55.832;49.124;2023-02-24T00:08:09;9.48;;;4.40;;
78453;SDS011;67750;55.832;49.124;2023-02-24T00:10:38;12.15;;;4.72;;
78453;SDS011;67750;55.832;49.124;2023-02-24T00:13:07;9.03;;;3.70;;
78453;SDS011;67750;55.832;49.124;2023-02-24T00:15:38;10.53;;;4.50;;
78453;SDS011;67750;55.832;49.124;2023-02-24T00:18:07;10.70;;;4.85;;
78453;SDS011;67750;55.832;49.124;2023-02-24T00:20:36;9.68;;;4.65;;
78453;SDS011;67750;55.832;49.124;2023-02-24T00:23:06;9.60;;;4.20;;
78453;SDS011;67750;55.832;49.124;2023-02-24T00:25:35;9.38;;;4.47;;
78453;SDS011;67750;55.832;49.124;2023-02-24T00:28:05;12.63;;;4.97;;
78453;SDS011;67750;55.832;49.124;2023-02-24T00:30:34;12.73;;;4.85;;
78453;SDS011;67750;55.832;49.124;2023-02-24T00:33:05;9.38;;;4.40;;
78453;SDS011;67750;55.832;49.124;2023-02-24T00:35:35;9.53;;;4.67;;
78453;SDS011;67750;55.832;49.124;2023-02-24T00:38:04;11.03;;;4.15;;
78453;SDS011;67750;55.832;49.124;2023-02-24T00:40:34;10.82;;;4.40;;
78453;SDS011;67750;55.832;49.124;2023-02-24T00:43:03;7.80;;;4.08;;
78453;SDS011;67750;55.832;49.124;2023-02-24T00:45:34;10.00;;;4.50;;
78453;SDS011;67750;55.832;49.124;2023-02-24T00:48:05;10.95;;;4.83;;
78453;SDS011;67750;55.832;49.124;2023-02-24T00:50:36;8.45;;;3.62;;
78453;SDS011;67750;55.832;49.124;2023-02-24T00:53:05;8.43;;;3.50;;
78453;SDS011;67750;55.832;49.124;2023-02-24T00:55:35;11.43;;;4.60;;
78453;SDS011;67750;55.832;49.124;2023-02-24T00:58:04;12.65;;;4.95;;
78453;SDS011;67750;55.832;49.124;2023-02-24T01:00:34;9.15;;;4.03;;
78453;SDS011;67750;55.832;49.124;2023-02-24T01:03:04;8.35;;;3.95;;
78453;SDS011;67750;55.832;49.124;2023-02-24T01:05:34;8.38;;;4.10;;
78453;SDS011;67750;55.832;49.124;2023-02-24T01:08:04;11.28;;;4.80;;
78453;SDS011;67750;55.832;49.124;2023-02-24T01:10:33;9.58;;;4.47;;
78453;SDS011;67750;55.832;49.124;2023-02-24T01:13:03;10.95;;;4.35;;
78453;SDS011;67750;55.832;49.124;2023-02-24T01:15:34;7.83;;;4.03;;
78453;SDS011;67750;55.832;49.124;2023-02-24T01:18:04;14.50;;;4.60;;
78453;SDS011;67750;55.832;49.124;2023-02-24T01:20:33;12.23;;;5.35;;
78453;SDS011;67750;55.832;49.124;2023-02-24T01:23:05;14.07;;;4.95;;
78453;SDS011;67750;55.832;49.124;2023-02-24T01:25:35;8.55;;;4.70;;
78453;SDS011;67750;55.832;49.124;2023-02-24T01:28:05;9.65;;;4.47;;
78453;SDS011;67750;55.832;49.124;2023-02-24T01:30:36;11.33;;;4.72;;
78453;SDS011;67750;55.832;49.124;2023-02-24T01:33:05;8.40;;;3.52;;
78453;SDS011;67750;55.832;49.124;2023-02-24T01:35:35;7.10;;;3.80;;
78453;SDS011;67750;55.832;49.124;2023-02-24T01:38:04;10.63;;;4.22;;
78453;SDS011;67750;55.832;49.124;2023-02-24T01:40:33;12.43;;;4.10;;
78453;SDS011;67750;55.832;49.124;2023-02-24T01:43:03;5.33;;;2.75;;
78453;SDS011;67750;55.832;49.124;2023-02-24T01:45:52;8.50;;;3.85;;
78453;SDS011;67750;55.832;49.124;2023-02-24T01:48:22;10.03;;;3.33;;
78453;SDS011;67750;55.832;49.124;2023-02-24T01:50:51;10.48;;;5.17;;
78453;SDS011;67750;55.832;49.124;2023-02-24T01:53:21;9.85;;;3.55;;
78453;SDS011;67750;55.832;49.124;2023-02-24T01:55:51;10.85;;;4.35;;
78453;SDS011;67750;55.832;49.124;2023-02-24T02:01:10;6.87;;;3.85;;
78453;SDS011;67750;55.832;49.124;2023-02-24T02:03:40;5.75;;;2.52;;
78453;SDS011;67750;55.832;49.124;2023-02-24T02:06:11;9.55;;;4.00;;
78453;SDS011;67750;55.832;49.124;2023-02-24T02:08:42;10.15;;;3.65;;
78453;SDS011;67750;55.832;49.124;2023-02-24T02:11:14;8.93;;;4.20;;
78453;SDS011;67750;55.832;49.124;2023-02-24T02:14:03;8.65;;;3.83;;
78453;SDS011;67750;55.832;49.124;2023-02-24T02:22:16;12.53;;;4.65;;
78453;SDS011;67750;55.832;49.124;2023-02-24T02:24:46;9.88;;;4.17;;
78453;SDS011;67750;55.832;49.124;2023-02-24T02:38:37;8.85;;;4.28;;
78453;SDS011;67750;55.832;49.124;2023-02-24T02:44:15;5.72;;;2.60;;
78453;SDS011;67750;55.832;49.124;2023-02-24T02:54:59;10.93;;;4.22;;
78453;SDS011;67750;55.832;49.124;2023-02-24T02:57:30;10.08;;;5.15;;
78453;SDS011;67750;55.832;49.124;2023-02-24T03:02:50;11.25;;;4.33;;
78453;SDS011;67750;55.832;49.124;2023-02-24T03:05:23;7.55;;;2.72;;
78453;SDS011;67750;55.832;49.124;2023-02-24T03:07:55;9.05;;;3.90;;
78453;SDS011;67750;55.832;49.124;2023-02-24T03:10:26;9.50;;;4.83;;
78453;SDS011;67750;55.832;49.124;2023-02-24T03:12:58;12.25;;;4.67;;
78453;SDS011;67750;55.832;49.124;2023-02-24T03:15:29;9.93;;;4.50;;
78453;SDS011;67750;55.832;49.124;2023-02-24T03:18:01;10.90;;;4.37;;
78453;SDS011;67750;55.832;49.124;2023-02-24T03:20:35;9.20;;;4.40;;
78453;SDS011;67750;55.832;49.124;2023-02-24T03:23:06;10.63;;;4.50;;
78453;SDS011;67750;55.832;49.124;2023-02-24T03:31:16;11.33;;;4.97;;
78453;SDS011;67750;55.832;49.124;2023-02-24T03:36:39;9.05;;;4.10;;
78453;SDS011;67750;55.832;49.124;2023-02-24T03:39:09;10.38;;;4.30;;
78453;SDS011;67750;55.832;49.124;2023-02-24T03:42:16;11.25;;;4.40;;
78453;SDS011;67750;55.832;49.124;2023-02-24T03:44:14;10.93;;;5.12;;
78453;SDS011;67750;55.832;49.124;2023-02-24T03:46:43;10.65;;;3.70;;
78453;SDS011;67750;55.832;49.124;2023-02-24T03:49:13;10.88;;;4.60;;
78453;SDS011;67750;55.832;49.124;2023-02-24T03:51:46;15.03;;;4.87;;
78453;SDS011;67750;55.832;49.124;2023-02-24T03:54:18;9.98;;;4.05;;
78453;SDS011;67750;55.832;49.124;2023-02-24T04:02:31;10.30;;;4.12;;
78453;SDS011;67750;55.832;49.124;2023-02-24T04:05:05;11.75;;;4.65;;
78453;SDS011;67750;55.832;49.124;2023-02-24T04:11:02;10.10;;;3.62;;
78453;SDS011;67750;55.832;49.124;2023-02-24T04:18:24;13.28;;;4.85;;
78453;SDS011;67750;55.832;49.124;2023-02-24T04:20:54;9.20;;;4.15;;
78453;SDS011;67750;55.832;49.124;2023-02-24T04:23:27;13.32;;;5.08;;
78453;SDS011;67750;55.832;49.124;2023-02-24T04:25:57;9.05;;;4.28;;
78453;SDS011;67750;55.832;49.124;2023-02-24T04:28:27;10.80;;;4.62;;
78453;SDS011;67750;55.832;49.124;2023-02-24T04:31:00;11.25;;;4.50;;
78453;SDS011;67750;55.832;49.124;2023-02-24T04:33:32;9.30;;;4.53;;
78453;SDS011;67750;55.832;49.124;2023-02-24T04:36:02;11.85;;;3.95;;
78453;SDS011;67750;55.832;49.124;2023-02-24T04:38:34;11.65;;;4.80;;
78453;SDS011;67750;55.832;49.124;2023-02-24T04:41:03;8.08;;;3.65;;
78453;SDS011;67750;55.832;49.124;2023-02-24T04:43:33;9.35;;;3.92;;
78453;SDS011;67750;55.832;49.124;2023-02-24T04:46:02;10.85;;;5.03;;
78453;SDS011;67750;55.832;49.124;2023-02-24T04:48:34;10.75;;;4.45;;
78453;SDS011;67750;55.832;49.124;2023-02-24T04:51:05;8.58;;;4.17;;
78453;SDS011;67750;55.832;49.124;2023-02-24T04:53:34;11.20;;;4.62;;
78453;SDS011;67750;55.832;49.124;2023-02-24T04:56:04;13.55;;;4.85;;
78453;SDS011;67750;55.832;49.124;2023-02-24T04:58:36;9.80;;;4.28;;
78453;SDS011;67750;55.832;49.124;2023-02-24T05:01:07;8.68;;;3.42;;
78453;SDS011;67750;55.832;49.124;2023-02-24T05:03:38;12.75;;;4.72;;
78453;SDS011;67750;55.832;49.124;2023-02-24T05:08:59;13.40;;;5.37;;
78453;SDS011;67750;55.832;49.124;2023-02-24T05:11:30;12.30;;;4.55;;
78453;SDS011;67750;55.832;49.124;2023-02-24T05:14:00;11.65;;;4.60;;
78453;SDS011;67750;55.832;49.124;2023-02-24T05:16:30;11.48;;;4.67;;
78453;SDS011;67750;55.832;49.124;2023-02-24T05:19:00;12.33;;;4.97;;
78453;SDS011;67750;55.832;49.124;2023-02-24T05:21:49;11.55;;;5.50;;
78453;SDS011;67750;55.832;49.124;2023-02-24T05:24:19;12.07;;;3.85;;
78453;SDS011;67750;55.832;49.124;2023-02-24T05:26:48;16.32;;;4.35;;
78453;SDS011;67750;55.832;49.124;2023-02-24T05:29:19;7.90;;;4.33;;
78453;SDS011;67750;55.832;49.124;2023-02-24T05:31:48;10.72;;;4.85;;
78453;SDS011;67750;55.832;49.124;2023-02-24T05:34:19;13.62;;;4.67;;
78453;SDS011;67750;55.832;49.124;2023-02-24T05:36:50;11.75;;;4.58;;
78453;SDS011;67750;55.832;49.124;2023-02-24T05:39:19;10.05;;;5.12;;
78453;SDS011;67750;55.832;49.124;2023-02-24T05:41:50;11.97;;;4.40;;
78453;SDS011;67750;55.832;49.124;2023-02-24T05:44:22;11.90;;;4.70;;
78453;SDS011;67750;55.832;49.124;2023-02-24T05:46:53;10.05;;;4.90;;
78453;SDS011;67750;55.832;49.124;2023-02-24T05:52:16;11.03;;;4.83;;
78453;SDS011;67750;55.832;49.124;2023-02-24T05:54:46;13.90;;;5.80;;
78453;SDS011;67750;55.832;49.124;2023-02-24T05:57:16;12.43;;;4.97;;
78453;SDS011;67750;55.832;49.124;2023-02-24T05:59:48;12.28;;;5.20;;
78453;SDS011;67750;55.832;49.124;2023-02-24T06:02:17;11.30;;;5.25;;
78453;SDS011;67750;55.832;49.124;2023-02-24T06:04:49;10.95;;;4.92;;
78453;SDS011;67750;55.832;49.124;2023-02-24T06:07:21;12.75;;;5.95;;
78453;SDS011;67750;55.832;49.124;2023-02-24T06:12:41;9.75;;;4.58;;
78453;SDS011;67750;55.832;49.124;2023-02-24T06:15:11;12.75;;;5.45;;
78453;SDS011;67750;55.832;49.124;2023-02-24T06:17:40;13.65;;;5.78;;
78453;SDS011;67750;55.832;49.124;2023-02-24T06:20:11;12.58;;;5.95;;
78453;SDS011;67750;55.832;49.124;2023-02-24T06:22:41;13.08;;;6.33;;
78453;SDS011;67750;55.832;49.124;2023-02-24T06:25:10;15.72;;;6.03;;
78453;SDS011;67750;55.832;49.124;2023-02-24T06:27:40;11.75;;;5.67;;
78453;SDS011;67750;55.832;49.124;2023-02-24T06:30:10;11.68;;;5.90;;
78453;SDS011;67750;55.832;49.124;2023-02-24T06:32:41;11.63;;;5.47;;
78453;SDS011;67750;55.832;49.124;2023-02-24T06:35:10;14.28;;;6.00;;
78453;SDS011;67750;55.832;49.124;2023-02-24T06:37:40;10.80;;;5.90;;
78453;SDS011;67750;55.832;49.124;2023-02-24T06:40:10;14.28;;;6.33;;
78453;SDS011;67750;55.832;49.124;2023-02-24T06:43:00;13.38;;;7.22;;
78453;SDS011;67750;55.832;49.124;2023-02-24T06:45:32;12.85;;;6.33;;
78453;SDS011;67750;55.832;49.124;2023-02-24T06:48:01;14.58;;;6.67;;
78453;SDS011;67750;55.832;49.124;2023-02-24T06:53:21;12.95;;;5.87;;
78453;SDS011;67750;55.832;49.124;2023-02-24T06:55:52;12.15;;;6.33;;
78453;SDS011;67750;55.832;49.124;2023-02-24T06:58:21;17.32;;;6.12;;
78453;SDS011;67750;55.832;49.124;2023-02-24T07:00:51;15.32;;;6.00;;
78453;SDS011;67750;55.832;49.124;2023-02-24T07:03:40;12.40;;;6.03;;
78453;SDS011;67750;55.832;49.124;2023-02-24T07:06:30;14.07;;;5.95;;
78453;SDS011;67750;55.832;49.124;2023-02-24T07:11:50;12.70;;;6.30;;
78453;SDS011;67750;55.832;49.124;2023-02-24T07:14:22;16.25;;;6.72;;
78453;SDS011;67750;55.832;49.124;2023-02-24T07:16:52;12.00;;;6.55;;
78453;SDS011;67750;55.832;49.124;2023-02-24T07:19:25;12.65;;;6.28;;
78453;SDS011;67750;55.832;49.124;2023-02-24T07:24:46;12.15;;;6.40;;
78453;SDS011;67750;55.832;49.124;2023-02-24T07:27:15;10.95;;;5.78;;
78453;SDS011;67750;55.832;49.124;2023-02-24T07:30:05;14.25;;;6.95;;
78453;SDS011;67750;55.832;49.124;2023-02-24T07:32:36;18.92;;;6.72;;
78453;SDS011;67750;55.832;49.124;2023-02-24T07:35:06;15.00;;;6.00;;
78453;SDS011;67750;55.832;49.124;2023-02-24T07:37:36;12.45;;;6.53;;
78453;SDS011;67750;55.832;49.124;2023-02-24T07:40:08;13.03;;;6.00;;
78453;SDS011;67750;55.832;49.124;2023-02-24T07:42:39;13.40;;;7.15;;
78453;SDS011;67750;55.832;49.124;2023-02-24T07:45:09;14.68;;;7.35;;
78453;SDS011;67750;55.832;49.124;2023-02-24T07:47:39;18.30;;;7.70;;
78453;SDS011;67750;55.832;49.124;2023-02-24T07:50:09;15.60;;;7.10;;
78453;SDS011;67750;55.832;49.124;2023-02-24T07:52:40;15.28;;;6.17;;
78453;SDS011;67750;55.832;49.124;2023-02-24T07:55:29;13.80;;;5.78;;
78453;SDS011;67750;55.832;49.124;2023-02-24T07:57:59;13.40;;;6.33;;
78453;SDS011;67750;55.832;49.124;2023-02-24T08:00:29;13.28;;;5.97;;
78453;SDS011;67750;55.832;49.124;2023-02-24T08:03:00;13.28;;;6.55;;
78453;SDS011;67750;55.832;49.124;2023-02-24T08:05:30;16.40;;;7.05;;
78453;SDS011;67750;55.832;49.124;2023-02-24T08:07:59;15.93;;;7.08;;
78453;SDS011;67750;55.832;49.124;2023-02-24T08:10:29;14.50;;;6.75;;
78453;SDS011;67750;55.832;49.124;2023-02-24T08:13:00;15.23;;;5.45;;
78453;SDS011;67750;55.832;49.124;2023-02-24T08:15:30;16.07;;;6.72;;
78453;SDS011;67750;55.832;49.124;2023-02-24T08:18:19;14.65;;;6.65;;
78453;SDS011;67750;55.832;49.124;2023-02-24T08:20:49;14.05;;;6.85;;
78453;SDS011;67750;55.832;49.124;2023-02-24T08:23:18;11.53;;;5.97;;
78453;SDS011;67750;55.832;49.124;2023-02-24T08:25:49;12.85;;;6.42;;
78453;SDS011;67750;55.832;49.124;2023-02-24T08:28:19;14.83;;;5.58;;
78453;SDS011;67750;55.832;49.124;2023-02-24T08:30:50;12.23;;;6.60;;
78453;SDS011;67750;55.832;49.124;2023-02-24T08:33:20;13.38;;;6.10;;
78453;SDS011;67750;55.832;49.124;2023-02-24T08:38:21;11.85;;;6.08;;
78453;SDS011;67750;55.832;49.124;2023-02-24T08:40:52;15.40;;;7.00;;
78453;SDS011;67750;55.832;49.124;2023-02-24T08:46:15;13.60;;;6.50;;
78453;SDS011;67750;55.832;49.124;2023-02-24T08:48:45;15.15;;;6.83;;
78453;SDS011;67750;55.832;49.124;2023-02-24T08:54:07;14.60;;;6.20;;
78453;SDS011;67750;55.832;49.124;2023-02-24T08:56:38;15.08;;;7.80;;
78453;SDS011;67750;55.832;49.124;2023-02-24T08:59:11;14.95;;;6.62;;
78453;SDS011;67750;55.832;49.124;2023-02-24T09:02:00;13.10;;;5.45;;
78453;SDS011;67750;55.832;49.124;2023-02-24T09:04:50;15.30;;;6.33;;
78453;SDS011;67750;55.832;49.124;2023-02-24T09:07:21;13.98;;;7.12;;
78453;SDS011;67750;55.832;49.124;2023-02-24T09:09:51;14.93;;;6.53;;
78453;SDS011;67750;55.832;49.124;2023-02-24T09:12:41;14.13;;;7.33;;
78453;SDS011;67750;55.832;49.124;2023-02-24T09:15:11;17.98;;;7.20;;
78453;SDS011;67750;55.832;49.124;2023-02-24T09:18:00;14.00;;;6.78;;
78453;SDS011;67750;55.832;49.124;2023-02-24T09:20:49;14.03;;;6.83;;
78453;SDS011;67750;55.832;49.124;2023-02-24T09:23:38;16.40;;;6.75;;
78453;SDS011;67750;55.832;49.124;2023-02-24T09:26:28;13.75;;;7.20;;
78453;SDS011;67750;55.832;49.124;2023-02-24T09:28:59;14.47;;;6.08;;
78453;SDS011;67750;55.832;49.124;2023-02-24T09:31:30;13.85;;;7.05;;
78453;SDS011;67750;55.832;49.124;2023-02-24T09:34:01;14.83;;;6.33;;
78453;SDS011;67750;55.832;49.124;2023-02-24T09:36:30;13.22;;;5.78;;
78453;SDS011;67750;55.832;49.124;2023-02-24T09:39:01;14.63;;;6.97;;
78453;SDS011;67750;55.832;49.124;2023-02-24T09:53:13;12.13;;;5.87;;
78453;SDS011;67750;55.832;49.124;2023-02-24T09:56:04;14.75;;;6.67;;
78453;SDS011;67750;55.832;49.124;2023-02-24T10:06:47;12.60;;;5.97;;
78453;SDS011;67750;55.832;49.124;2023-02-24T10:17:48;13.68;;;6.22;;
78453;SDS011;67750;55.832;49.124;2023-02-24T10:26:47;14.25;;;6.50;;
78453;SDS011;67750;55.832;49.124;2023-02-24T10:29:07;13.58;;;6.75;;
78453;SDS011;67750;55.832;49.124;2023-02-24T10:31:40;12.28;;;5.60;;
78453;SDS011;67750;55.832;49.124;2023-02-24T10:34:10;12.75;;;6.30;;
78453;SDS011;67750;55.832;49.124;2023-02-24T10:36:40;12.43;;;5.10;;
78453;SDS011;67750;55.832;49.124;2023-02-24T10:42:02;15.18;;;5.67;;
78453;SDS011;67750;55.832;49.124;2023-02-24T10:45:06;10.78;;;5.85;;
78453;SDS011;67750;55.832;49.124;2023-02-24T10:47:27;13.18;;;5.45;;
78453;SDS011;67750;55.832;49.124;2023-02-24T10:53:08;13.65;;;6.55;;
78453;SDS011;67750;55.832;49.124;2023-02-24T10:58:46;10.20;;;4.97;;
78453;SDS011;67750;55.832;49.124;2023-02-24T11:01:35;12.98;;;5.75;;
78453;SDS011;67750;55.832;49.124;2023-02-24T11:07:34;14.75;;;5.65;;
78453;SDS011;67750;55.832;49.124;2023-02-24T11:10:23;11.63;;;5.28;;
78453;SDS011;67750;55.832;49.124;2023-02-24T11:12:54;13.25;;;5.20;;
78453;SDS011;67750;55.832;49.124;2023-02-24T11:18:53;10.75;;;4.85;;
78453;SDS011;67750;55.832;49.124;2023-02-24T11:21:24;10.38;;;5.45;;
78453;SDS011;67750;55.832;49.124;2023-02-24T11:26:44;12.63;;;5.20;;
78453;SDS011;67750;55.832;49.124;2023-02-24T11:34:56;10.68;;;5.58;;
78453;SDS011;67750;55.832;49.124;2023-02-24T11:43:05;14.83;;;6.37;;
78453;SDS011;67750;55.832;49.124;2023-02-24T11:48:28;12.18;;;5.92;;
78453;SDS011;67750;55.832;49.124;2023-02-24T11:56:40;11.05;;;4.17;;
78453;SDS011;67750;55.832;49.124;2023-02-24T12:24:16;13.15;;;6.92;;
78453;SDS011;67750;55.832;49.124;2023-02-24T12:35:20;13.05;;;5.80;;
78453;SDS011;67750;55.832;49.124;2023-02-24T12:51:41;17.67;;;6.35;;
78453;SDS011;67750;55.832;49.124;2023-02-24T12:57:36;13.43;;;6.35;;
78453;SDS011;67750;55.832;49.124;2023-02-24T12:59:30;15.15;;;7.17;;
78453;SDS011;67750;55.832;49.124;2023-02-24T13:16:09;16.23;;;5.47;;
78453;SDS011;67750;55.832;49.124;2023-02-24T13:18:39;10.13;;;4.72;;
78453;SDS011;67750;55.832;49.124;2023-02-24T13:21:17;10.82;;;4.72;;
78453;SDS011;67750;55.832;49.124;2023-02-24T13:23:40;12.23;;;5.30;;
78453;SDS011;67750;55.832;49.124;2023-02-24T13:26:10;9.08;;;4.95;;
78453;SDS011;67750;55.832;49.124;2023-02-24T13:28:41;16.52;;;6.97;;
78453;SDS011;67750;55.832;49.124;2023-02-24T13:31:11;14.90;;;6.85;;
78453;SDS011;67750;55.832;49.124;2023-02-24T13:33:42;14.50;;;6.15;;
78453;SDS011;67750;55.832;49.124;2023-02-24T13:38:47;11.33;;;5.58;;
78453;SDS011;67750;55.832;49.124;2023-02-24T13:55:10;10.90;;;5.10;;
78453;SDS011;67750;55.832;49.124;2023-02-24T14:01:01;19.55;;;6.40;;
78453;SDS011;67750;55.832;49.124;2023-02-24T14:02:59;10.93;;;3.83;;
78453;SDS011;67750;55.832;49.124;2023-02-24T14:05:29;16.45;;;6.03;;
78453;SDS011;67750;55.832;49.124;2023-02-24T14:07:59;14.83;;;4.72;;
78453;SDS011;67750;55.832;49.124;2023-02-24T14:10:30;15.95;;;7.08;;
78453;SDS011;67750;55.832;49.124;2023-02-24T14:13:04;10.30;;;4.42;;
78453;SDS011;67750;55.832;49.124;2023-02-24T14:15:33;6.90;;;4.17;;
78453;SDS011;67750;55.832;49.124;2023-02-24T14:18:04;11.75;;;3.67;;
78453;SDS011;67750;55.832;49.124;2023-02-24T14:20:34;15.75;;;6.17;;
78453;SDS011;67750;55.832;49.124;2023-02-24T14:23:40;16.42;;;6.67;;
78453;SDS011;67750;55.832;49.124;2023-02-24T14:25:36;15.75;;;6.55;;
78453;SDS011;67750;55.832;49.124;2023-02-24T14:28:12;14.58;;;6.90;;
78453;SDS011;67750;55.832;49.124;2023-02-24T14:30:39;17.20;;;5.50;;
78453;SDS011;67750;55.832;49.124;2023-02-24T14:33:14;15.95;;;5.67;;
78453;SDS011;67750;55.832;49.124;2023-02-24T14:35:40;12.80;;;6.45;;
78453;SDS011;67750;55.832;49.124;2023-02-24T14:41:00;17.20;;;6.28;;
78453;SDS011;67750;55.832;49.124;2023-02-24T14:43:30;16.07;;;6.83;;
78453;SDS011;67750;55.832;49.124;2023-02-24T14:46:03;13.05;;;5.28;;
78453;SDS011;67750;55.832;49.124;2023-02-24T14:48:31;18.62;;;6.22;;
78453;SDS011;67750;55.832;49.124;2023-02-24T14:51:01;14.45;;;7.12;;
78453;SDS011;67750;55.832;49.124;2023-02-24T14:53:31;13.72;;;6.50;;
78453;SDS011;67750;55.832;49.124;2023-02-24T14:56:01;21.37;;;6.83;;
78453;SDS011;67750;55.832;49.124;2023-02-24T15:01:24;17.45;;;7.47;;
78453;SDS011;67750;55.832;49.124;2023-02-24T15:03:53;22.20;;;8.88;;
78453;SDS011;67750;55.832;49.124;2023-02-24T15:09:14;14.45;;;4.30;;
78453;SDS011;67750;55.832;49.124;2023-02-24T15:11:43;15.93;;;5.67;;
78453;SDS011;67750;55.832;49.124;2023-02-24T15:17:06;13.35;;;6.37;;
78453;SDS011;67750;55.832;49.124;2023-02-24T15:19:33;14.93;;;6.65;;
78453;SDS011;67750;55.832;49.124;2023-02-24T15:22:15;16.37;;;7.28;;
78453;SDS011;67750;55.832;49.124;2023-02-24T15:24:34;23.30;;;9.38;;
78453;SDS011;67750;55.832;49.124;2023-02-24T15:32:42;12.18;;;5.65;;
78453;SDS011;67750;55.832;49.124;2023-02-24T15:35:20;19.23;;;8.80;;
78453;SDS011;67750;55.832;49.124;2023-02-24T15:37:42;17.62;;;7.20;;
78453;SDS011;67750;55.832;49.124;2023-02-24T15:45:35;16.93;;;5.80;;
78453;SDS011;67750;55.832;49.124;2023-02-24T15:50:56;21.65;;;8.30;;
78453;SDS011;67750;55.832;49.124;2023-02-24T15:53:26;13.38;;;6.00;;
78453;SDS011;67750;55.832;49.124;2023-02-24T15:55:55;17.70;;;8.63;;
78453;SDS011;67750;55.832;49.124;2023-02-24T15:58:25;23.87;;;8.15;;
78453;SDS011;67750;55.832;49.124;2023-02-24T16:00:54;11.65;;;5.65;;
78453;SDS011;67750;55.832;49.124;2023-02-24T16:03:24;17.40;;;7.85;;
78453;SDS011;67750;55.832;49.124;2023-02-24T16:05:53;17.75;;;6.85;;
78453;SDS011;67750;55.832;49.124;2023-02-24T16:08:22;14.78;;;7.45;;
78453;SDS011;67750;55.832;49.124;2023-02-24T16:10:52;21.97;;;7.92;;
78453;SDS011;67750;55.832;49.124;2023-02-24T16:13:23;18.32;;;7.80;;
78453;SDS011;67750;55.832;49.124;2023-02-24T16:15:53;19.90;;;8.08;;
78453;SDS011;67750;55.832;49.124;2023-02-24T16:18:22;17.92;;;7.47;;
78453;SDS011;67750;55.832;49.124;2023-02-24T16:20:53;17.12;;;7.67;;
78453;SDS011;67750;55.832;49.124;2023-02-24T16:23:23;17.20;;;8.03;;
78453;SDS011;67750;55.832;49.124;2023-02-24T16:31:34;16.95;;;8.08;;
78453;SDS011;67750;55.832;49.124;2023-02-24T16:34:04;17.27;;;8.03;;
78453;SDS011;67750;55.832;49.124;2023-02-24T16:36:33;13.72;;;5.17;;
78453;SDS011;67750;55.832;49.124;2023-02-24T16:39:03;26.50;;;9.68;;
78453;SDS011;67750;55.832;49.124;2023-02-24T16:41:33;19.45;;;7.50;;
78453;SDS011;67750;55.832;49.124;2023-02-24T16:44:02;7.75;;;4.03;;
78453;SDS011;67750;55.832;49.124;2023-02-24T16:46:34;10.95;;;5.28;;
78453;SDS011;67750;55.832;49.124;2023-02-24T16:49:04;22.87;;;8.98;;
78453;SDS011;67750;55.832;49.124;2023-02-24T16:51:35;21.00;;;8.53;;
78453;SDS011;67750;55.832;49.124;2023-02-24T16:54:06;18.73;;;8.90;;
78453;SDS011;67750;55.832;49.124;2023-02-24T16:56:35;19.05;;;8.03;;
78453;SDS011;67750;55.832;49.124;2023-02-24T16:59:05;23.18;;;9.45;;
78453;SDS011;67750;55.832;49.124;2023-02-24T17:01:34;21.07;;;8.35;;
78453;SDS011;67750;55.832;49.124;2023-02-24T17:04:04;19.92;;;7.75;;
78453;SDS011;67750;55.832;49.124;2023-02-24T17:06:35;25.30;;;9.10;;
78453;SDS011;67750;55.832;49.124;2023-02-24T17:09:05;17.42;;;6.50;;
78453;SDS011;67750;55.832;49.124;2023-02-24T17:11:35;12.10;;;4.40;;
78453;SDS011;67750;55.832;49.124;2023-02-24T17:14:04;10.10;;;4.65;;
78453;SDS011;67750;55.832;49.124;2023-02-24T17:16:33;12.37;;;4.70;;
78453;SDS011;67750;55.832;49.124;2023-02-24T17:19:04;15.15;;;5.10;;
78453;SDS011;67750;55.832;49.124;2023-02-24T17:21:34;19.27;;;7.50;;
78453;SDS011;67750;55.832;49.124;2023-02-24T17:24:04;10.18;;;3.35;;
78453;SDS011;67750;55.832;49.124;2023-02-24T17:26:33;16.97;;;6.20;;
78453;SDS011;67750;55.832;49.124;2023-02-24T17:29:03;18.77;;;6.70;;
78453;SDS011;67750;55.832;49.124;2023-02-24T17:31:33;14.45;;;6.33;;
78453;SDS011;67750;55.832;49.124;2023-02-24T17:34:02;14.28;;;6.67;;
78453;SDS011;67750;55.832;49.124;2023-02-24T17:36:32;14.98;;;6.03;;
78453;SDS011;67750;55.832;49.124;2023-02-24T17:39:01;18.07;;;7.80;;
78453;SDS011;67750;55.832;49.124;2023-02-24T17:41:31;14.55;;;5.70;;
78453;SDS011;67750;55.832;49.124;2023-02-24T17:44:00;15.45;;;6.12;;
78453;SDS011;67750;55.832;49.124;2023-02-24T17:46:29;12.65;;;5.62;;
78453;SDS011;67750;55.832;49.124;2023-02-24T17:48:59;15.93;;;6.20;;
78453;SDS011;67750;55.832;49.124;2023-02-24T17:51:30;19.55;;;6.87;;
78453;SDS011;67750;55.832;49.124;2023-02-24T17:53:59;16.50;;;5.78;;
78453;SDS011;67750;55.832;49.124;2023-02-24T17:56:29;14.68;;;6.08;;
78453;SDS011;67750;55.832;49.124;2023-02-24T17:58:58;12.03;;;5.72;;
78453;SDS011;67750;55.832;49.124;2023-02-24T18:01:27;14.53;;;5.60;;
78453;SDS011;67750;55.832;49.124;2023-02-24T18:03:57;14.18;;;5.47;;
78453;SDS011;67750;55.832;49.124;2023-02-24T18:06:26;16.37;;;6.15;;
78453;SDS011;67750;55.832;49.124;2023-02-24T18:08:56;17.57;;;8.30;;
78453;SDS011;67750;55.832;49.124;2023-02-24T18:11:25;17.67;;;6.45;;
78453;SDS011;67750;55.832;49.124;2023-02-24T18:13:55;15.83;;;6.08;;
78453;SDS011;67750;55.832;49.124;2023-02-24T18:16:24;21.55;;;6.60;;
78453;SDS011;67750;55.832;49.124;2023-02-24T18:18:54;16.32;;;5.95;;
78453;SDS011;67750;55.832;49.124;2023-02-24T18:21:23;18.27;;;6.28;;
78453;SDS011;67750;55.832;49.124;2023-02-24T18:23:52;13.32;;;4.90;;
78453;SDS011;67750;55.832;49.124;2023-02-24T18:26:22;11.45;;;4.55;;
78453;SDS011;67750;55.832;49.124;2023-02-24T18:28:51;11.53;;;4.58;;
78453;SDS011;67750;55.832;49.124;2023-02-24T18:31:21;10.58;;;4.78;;
78453;SDS011;67750;55.832;49.124;2023-02-24T18:33:51;9.85;;;4.55;;
78453;SDS011;67750;55.832;49.124;2023-02-24T18:36:21;8.58;;;4.10;;
78453;SDS011;67750;55.832;49.124;2023-02-24T18:38:51;9.95;;;4.37;;
78453;SDS011;67750;55.832;49.124;2023-02-24T18:41:21;13.35;;;4.58;;
78453;SDS011;67750;55.832;49.124;2023-02-24T18:44:24;10.95;;;4.87;;
78453;SDS011;67750;55.832;49.124;2023-02-24T18:46:23;11.28;;;4.37;;
78453;SDS011;67750;55.832;49.124;2023-02-24T18:48:54;13.05;;;5.28;;
78453;SDS011;67750;55.832;49.124;2023-02-24T18:51:24;14.28;;;6.08;;
78453;SDS011;67750;55.832;49.124;2023-02-24T18:56:44;20.23;;;6.85;;
78453;SDS011;67750;55.832;49.124;2023-02-24T18:59:13;17.77;;;7.00;;
78453;SDS011;67750;55.832;49.124;2023-02-24T19:01:43;20.50;;;7.58;;
78453;SDS011;67750;55.832;49.124;2023-02-24T19:04:12;16.67;;;6.85;;
78453;SDS011;67750;55.832;49.124;2023-02-24T19:06:43;13.78;;;4.92;;
78453;SDS011;67750;55.832;49.124;2023-02-24T19:09:14;16.25;;;7.20;;
78453;SDS011;67750;55.832;49.124;2023-02-24T19:11:45;21.05;;;7.12;;
78453;SDS011;67750;55.832;49.124;2023-02-24T19:14:15;16.52;;;6.58;;
78453;SDS011;67750;55.832;49.124;2023-02-24T19:16:45;15.78;;;5.92;;
78453;SDS011;67750;55.832;49.124;2023-02-24T19:19:14;13.50;;;5.87;;